createdAt,value
2019-05-22T00:00:31.803Z,27.25
2019-05-22T00:01:13.174Z,22.20
2019-05-22T00:02:03.384Z,27.80
2019-05-22T00:02:46.688Z,20.68
2019-05-22T00:03:21.722Z,21.17
2019-05-22T00:04:12.467Z,22.98
2019-05-22T00:04:52.910Z,19.98
2019-05-22T00:05:29.631Z,22.82
2019-05-22T00:06:03.004Z,24.20
2019-05-22T00:06:39.594Z,21.30
2019-05-22T00:07:13.795Z,24.07
2019-05-22T00:07:47.448Z,24.98
2019-05-22T00:08:22.136Z,28.40
2019-05-22T00:08:56.883Z,26.57
2019-05-22T00:09:35.997Z,30.90
2019-05-22T00:10:12.116Z,23.50
2019-05-22T00:10:46.765Z,26.75
2019-05-22T00:11:21.371Z,30.02
2019-05-22T00:11:55.312Z,24.80
2019-05-22T00:12:44.116Z,31.73
2019-05-22T00:13:06.285Z,24.70
2019-05-22T00:13:39.927Z,24.98
2019-05-22T00:14:14.646Z,22.70
2019-05-22T00:14:49.935Z,24.72
2019-05-22T00:15:24.521Z,33.42
2019-05-22T00:15:57.413Z,25.52
2019-05-22T00:16:31.513Z,31.80
2019-05-22T00:17:06.048Z,26.33
2019-05-22T00:17:40.023Z,24.82
2019-05-22T00:18:13.246Z,24.63
2019-05-22T00:18:46.847Z,31.55
2019-05-22T00:19:22.429Z,26.60
2019-05-22T00:19:55.114Z,28.07
2019-05-22T00:20:28.954Z,29.48
2019-05-22T00:21:03.993Z,30.97
2019-05-22T00:21:38.524Z,27.82
2019-05-22T00:22:19.246Z,24.98
2019-05-22T00:22:53.320Z,26.25
2019-05-22T00:23:28.078Z,25.70
2019-05-22T00:24:03.428Z,28.55
2019-05-22T00:24:38.827Z,34.73
2019-05-22T00:25:17.847Z,26.15
2019-05-22T00:25:52.968Z,28.55
2019-05-22T00:26:28.398Z,32.20
2019-05-22T00:27:03.776Z,26.85
2019-05-22T00:27:38.034Z,31.73
2019-05-22T00:28:12.552Z,23.92
2019-05-22T00:28:46.509Z,25.20
2019-05-22T00:29:21.484Z,28.05
2019-05-22T00:29:55.442Z,28.87
2019-05-22T00:30:31.714Z,28.50
2019-05-22T00:31:05.360Z,24.60
2019-05-22T00:31:40.113Z,29.20
2019-05-22T00:32:15.735Z,29.10
2019-05-22T00:32:48.675Z,31.60
2019-05-22T00:33:21.536Z,28.38
2019-05-22T00:33:55.569Z,31.77
2019-05-22T00:34:29.932Z,28.07
2019-05-22T00:35:03.394Z,30.32
2019-05-22T00:35:37.995Z,29.77
2019-05-22T00:36:12.845Z,28.65
2019-05-22T00:36:46.749Z,30.20
2019-05-22T00:37:19.971Z,28.57
2019-05-22T00:37:53.924Z,29.05
2019-05-22T00:38:28.410Z,34.53
2019-05-22T00:39:02.881Z,33.85
2019-05-22T00:39:36.531Z,27.98
2019-05-22T00:40:11.865Z,31.75
2019-05-22T00:40:54.221Z,27.73
2019-05-22T00:41:30.459Z,37.17
2019-05-22T00:42:03.435Z,32.35
2019-05-22T00:42:39.399Z,30.80
2019-05-22T00:43:14.196Z,30.90
2019-05-22T00:43:48.797Z,33.20
2019-05-22T00:44:21.570Z,30.30
2019-05-22T00:44:55.768Z,33.15
2019-05-22T00:45:28.496Z,32.00
2019-05-22T00:46:04.989Z,27.48
2019-05-22T00:46:39.538Z,34.73
2019-05-22T00:47:14.028Z,37.98
2019-05-22T00:47:48.580Z,39.20
2019-05-22T00:48:25.045Z,34.48
2019-05-22T00:48:58.351Z,33.05
2019-05-22T00:49:33.695Z,35.28
2019-05-22T00:50:08.508Z,33.45
2019-05-22T00:50:59.561Z,29.05
2019-05-22T00:51:56.836Z,36.58
2019-05-22T00:52:47.571Z,34.35
2019-05-22T00:53:39.111Z,40.20
2019-05-22T00:54:21.243Z,42.08
2019-05-22T00:54:57.928Z,35.20
2019-05-22T00:55:37.363Z,37.10
2019-05-22T00:56:16.323Z,31.33
2019-05-22T00:56:58.894Z,35.78
2019-05-22T00:57:39.225Z,33.73
2019-05-22T00:58:18.845Z,37.75
2019-05-22T00:58:57.612Z,33.28
2019-05-22T00:59:32.674Z,39.50
2019-05-22T01:00:24.254Z,39.27
2019-05-22T01:01:00.615Z,37.58
2019-05-22T01:01:38.062Z,35.17
2019-05-22T01:02:12.369Z,37.65
2019-05-22T01:02:46.822Z,43.28
2019-05-22T01:03:21.934Z,36.35
2019-05-22T01:03:56.617Z,44.45
2019-05-22T01:04:37.636Z,41.02
2019-05-22T01:05:10.869Z,41.18
2019-05-22T01:05:43.588Z,38.38
2019-05-22T01:06:18.024Z,37.08
2019-05-22T01:06:53.682Z,39.45
2019-05-22T01:07:36.580Z,36.17
2019-05-22T01:08:11.047Z,37.93
2019-05-22T01:08:45.648Z,47.33
2019-05-22T01:09:26.731Z,37.67
2019-05-22T01:10:01.828Z,42.67
2019-05-22T01:10:35.438Z,49.60
2019-05-22T01:11:09.974Z,37.05
2019-05-22T01:11:44.827Z,37.48
2019-05-22T01:12:21.602Z,31.57
2019-05-22T01:12:59.987Z,32.33
2019-05-22T01:13:35.526Z,43.92
2019-05-22T01:14:09.099Z,43.08
2019-05-22T01:14:43.127Z,37.67
2019-05-22T01:15:21.060Z,36.05
2019-05-22T01:15:54.652Z,38.65
2019-05-22T01:16:27.295Z,33.75
2019-05-22T01:17:03.156Z,39.98
2019-05-22T01:17:37.668Z,37.17
2019-05-22T01:18:13.900Z,41.30
2019-05-22T01:18:47.040Z,34.00
2019-05-22T01:19:22.032Z,38.98
2019-05-22T01:19:56.022Z,40.30
2019-05-22T01:20:29.896Z,44.00
2019-05-22T01:21:04.701Z,42.40
2019-05-22T01:21:39.930Z,43.80
2019-05-22T01:22:14.870Z,36.73
2019-05-22T01:22:48.995Z,42.40
2019-05-22T01:23:23.971Z,38.48
2019-05-22T01:23:59.440Z,40.15
2019-05-22T01:24:33.307Z,39.88
2019-05-22T01:25:06.206Z,40.08
2019-05-22T01:25:40.011Z,44.77
2019-05-22T01:26:18.727Z,40.33
2019-05-22T01:26:54.218Z,38.38
2019-05-22T01:27:29.070Z,39.78
2019-05-22T01:28:03.808Z,41.40
2019-05-22T01:28:36.651Z,36.10
2019-05-22T01:29:09.687Z,43.08
2019-05-22T01:29:43.094Z,44.00
2019-05-22T01:30:25.775Z,44.08
2019-05-22T01:31:08.289Z,42.70
2019-05-22T01:31:51.051Z,36.15
2019-05-22T01:32:30.596Z,44.13
2019-05-22T01:33:08.310Z,41.20
2019-05-22T01:33:49.238Z,35.20
2019-05-22T01:34:27.333Z,44.60
2019-05-22T01:35:00.271Z,35.80
2019-05-22T01:35:35.871Z,35.50
2019-05-22T01:36:19.102Z,40.08
2019-05-22T01:36:55.563Z,38.92
2019-05-22T01:37:30.419Z,41.18
2019-05-22T01:38:03.500Z,37.67
2019-05-22T01:38:38.045Z,40.60
2019-05-22T01:39:25.448Z,45.85
2019-05-22T01:40:04.325Z,36.55
2019-05-22T01:40:47.066Z,36.28
2019-05-22T01:41:27.957Z,37.95
2019-05-22T01:42:03.691Z,38.85
2019-05-22T01:42:41.187Z,42.48
2019-05-22T01:43:17.395Z,40.40
2019-05-22T01:43:51.903Z,37.00
2019-05-22T01:44:26.163Z,40.25
2019-05-22T01:45:05.922Z,34.25
2019-05-22T01:45:35.564Z,46.02
2019-05-22T01:46:09.258Z,32.50
2019-05-22T01:46:44.445Z,32.48
2019-05-22T01:47:38.233Z,33.50
2019-05-22T01:48:17.157Z,32.70
2019-05-22T01:48:55.263Z,31.50
2019-05-22T01:49:30.308Z,38.88
2019-05-22T01:50:05.874Z,34.98
2019-05-22T01:50:57.123Z,32.85
2019-05-22T01:51:30.463Z,39.42
2019-05-22T01:52:03.852Z,54.15
2019-05-22T01:52:37.784Z,37.33
2019-05-22T01:53:13.227Z,33.20
2019-05-22T01:53:46.366Z,36.25
2019-05-22T01:54:19.109Z,33.20
2019-05-22T01:54:54.810Z,35.65
2019-05-22T01:55:29.798Z,35.52
2019-05-22T01:56:06.970Z,38.02
2019-05-22T01:56:41.556Z,44.63
2019-05-22T01:57:15.560Z,34.75
2019-05-22T01:57:50.071Z,31.45
2019-05-22T01:58:24.650Z,31.87
2019-05-22T01:58:57.652Z,39.48
2019-05-22T01:59:33.539Z,37.65
2019-05-22T02:00:08.898Z,38.48
2019-05-22T02:00:43.601Z,37.38
2019-05-22T02:01:22.103Z,35.23
2019-05-22T02:01:57.382Z,41.35
2019-05-22T02:02:32.634Z,34.48
2019-05-22T02:03:07.083Z,30.97
2019-05-22T02:03:40.239Z,34.70
2019-05-22T02:04:14.904Z,37.33
2019-05-22T02:04:47.863Z,44.20
2019-05-22T02:05:23.007Z,32.38
2019-05-22T02:05:56.456Z,34.85
2019-05-22T02:06:29.896Z,36.63
2019-05-22T02:07:04.243Z,32.53
2019-05-22T02:07:37.022Z,35.60
2019-05-22T02:08:11.272Z,45.25
2019-05-22T02:08:51.363Z,35.48
2019-05-22T02:09:33.544Z,29.05
2019-05-22T02:10:10.185Z,36.80
2019-05-22T02:10:46.517Z,32.20
2019-05-22T02:11:21.875Z,33.42
2019-05-22T02:12:02.265Z,36.25
2019-05-22T02:12:50.831Z,33.50
2019-05-22T02:13:32.680Z,35.43
2019-05-22T02:14:11.901Z,31.62
2019-05-22T02:14:47.692Z,32.33
2019-05-22T02:15:20.730Z,36.98
2019-05-22T02:15:53.796Z,37.25
2019-05-22T02:16:28.627Z,32.15
2019-05-22T02:17:02.759Z,36.50
2019-05-22T02:17:36.801Z,32.73
2019-05-22T02:18:14.005Z,34.92
2019-05-22T02:18:48.946Z,39.98
2019-05-22T02:19:22.328Z,35.15
2019-05-22T02:19:55.061Z,39.98
2019-05-22T02:20:27.885Z,36.60
2019-05-22T02:21:02.818Z,36.83
2019-05-22T02:21:35.658Z,39.50
2019-05-22T02:22:10.707Z,42.67
2019-05-22T02:22:44.248Z,35.55
2019-05-22T02:23:17.338Z,41.37
2019-05-22T02:23:50.798Z,39.27
2019-05-22T02:24:23.716Z,35.48
2019-05-22T02:24:57.375Z,40.25
2019-05-22T02:25:31.753Z,41.83
2019-05-22T02:26:05.867Z,37.80
2019-05-22T02:26:42.067Z,38.75
2019-05-22T02:27:16.596Z,37.10
2019-05-22T02:27:50.295Z,36.88
2019-05-22T02:28:25.030Z,45.33
2019-05-22T02:28:59.478Z,41.37
2019-05-22T02:29:32.428Z,40.75
2019-05-22T02:30:05.406Z,39.27
2019-05-22T02:30:40.031Z,40.17
2019-05-22T02:31:16.643Z,38.92
2019-05-22T02:31:50.308Z,36.80
2019-05-22T02:32:25.529Z,35.63
2019-05-22T02:32:59.097Z,39.00
2019-05-22T02:33:32.095Z,40.00
2019-05-22T02:34:06.615Z,29.65
2019-05-22T02:34:39.355Z,33.28
2019-05-22T02:35:13.020Z,36.58
2019-05-22T02:35:45.877Z,34.88
2019-05-22T02:36:18.917Z,31.73
2019-05-22T02:36:53.038Z,33.80
2019-05-22T02:37:26.567Z,38.00
2019-05-22T02:38:00.136Z,34.08
2019-05-22T02:38:34.684Z,27.25
2019-05-22T02:39:21.020Z,37.63
2019-05-22T02:39:53.952Z,39.83
2019-05-22T02:40:32.434Z,37.60
2019-05-22T02:41:08.238Z,42.15
2019-05-22T02:41:45.639Z,35.05
2019-05-22T02:42:25.325Z,34.63
2019-05-22T02:42:57.968Z,35.48
2019-05-22T02:43:31.208Z,37.23
2019-05-22T02:44:04.731Z,32.88
2019-05-22T02:44:37.701Z,39.53
2019-05-22T02:45:10.830Z,35.55
2019-05-22T02:45:44.195Z,35.23
2019-05-22T02:46:17.938Z,35.17
2019-05-22T02:46:50.865Z,32.00
2019-05-22T02:47:24.837Z,33.70
2019-05-22T02:47:58.183Z,33.05
2019-05-22T02:48:31.231Z,36.33
2019-05-22T02:49:05.509Z,31.85
2019-05-22T02:49:39.555Z,34.23
2019-05-22T02:50:14.526Z,53.55
2019-05-22T02:50:48.161Z,32.98
2019-05-22T02:51:23.043Z,32.42
2019-05-22T02:51:57.337Z,32.60
2019-05-22T02:52:30.468Z,34.63
2019-05-22T02:53:07.208Z,33.15
2019-05-22T02:53:40.468Z,30.30
2019-05-22T02:54:13.495Z,29.87
2019-05-22T02:54:46.913Z,32.35
2019-05-22T02:55:20.686Z,35.43
2019-05-22T02:55:54.748Z,30.30
2019-05-22T02:56:28.200Z,37.03
2019-05-22T02:57:01.708Z,31.75
2019-05-22T02:57:34.951Z,39.00
2019-05-22T02:58:10.511Z,35.35
2019-05-22T02:58:43.846Z,33.18
2019-05-22T02:59:17.711Z,30.72
2019-05-22T02:59:51.115Z,31.20
2019-05-22T03:00:29.320Z,29.80
2019-05-22T03:01:04.687Z,34.18
2019-05-22T03:01:38.200Z,34.75
2019-05-22T03:02:12.732Z,41.53
2019-05-22T03:02:50.524Z,39.15
2019-05-22T03:03:24.418Z,29.65
2019-05-22T03:03:57.474Z,37.45
2019-05-22T03:04:55.742Z,30.50
2019-05-22T03:05:29.072Z,34.08
2019-05-22T03:06:03.730Z,33.13
2019-05-22T03:06:36.970Z,31.68
2019-05-22T03:07:10.415Z,32.58
2019-05-22T03:07:46.539Z,37.55
2019-05-22T03:08:20.784Z,38.75
2019-05-22T03:09:22.822Z,32.30
2019-05-22T03:09:55.855Z,43.35
2019-05-22T03:10:29.521Z,30.55
2019-05-22T03:11:02.265Z,31.62
2019-05-22T03:11:39.499Z,35.73
2019-05-22T03:12:15.631Z,36.48
2019-05-22T03:12:51.621Z,38.88
2019-05-22T03:13:57.214Z,34.18
2019-05-22T03:14:32.398Z,31.55
2019-05-22T03:15:10.723Z,36.75
2019-05-22T03:15:44.474Z,41.48
2019-05-22T03:16:18.022Z,41.40
2019-05-22T03:16:53.900Z,38.92
2019-05-22T03:17:29.765Z,44.80
2019-05-22T03:18:05.440Z,33.35
2019-05-22T03:18:38.263Z,36.95
2019-05-22T03:19:14.915Z,37.23
2019-05-22T03:19:48.028Z,33.75
2019-05-22T03:20:22.739Z,39.38
2019-05-22T03:20:56.013Z,31.80
2019-05-22T03:21:29.035Z,32.42
2019-05-22T03:22:07.972Z,37.90
2019-05-22T03:22:52.035Z,32.88
2019-05-22T03:23:35.913Z,34.45
2019-05-22T03:24:09.036Z,35.95
2019-05-22T03:24:42.777Z,35.68
2019-05-22T03:25:17.487Z,37.42
2019-05-22T03:25:50.217Z,41.65
2019-05-22T03:26:28.544Z,37.63
2019-05-22T03:27:02.688Z,33.15
2019-05-22T03:27:45.660Z,33.92
2019-05-22T03:28:18.709Z,37.60
2019-05-22T03:28:51.978Z,43.95
2019-05-22T03:29:38.938Z,37.88
2019-05-22T03:30:17.213Z,37.90
2019-05-22T03:30:50.072Z,35.88
2019-05-22T03:31:22.757Z,37.85
2019-05-22T03:31:55.688Z,40.25
2019-05-22T03:32:29.575Z,37.67
2019-05-22T03:33:03.588Z,35.83
2019-05-22T03:33:36.716Z,33.85
2019-05-22T03:34:11.789Z,40.80
2019-05-22T03:34:45.360Z,38.63
2019-05-22T03:35:19.997Z,34.78
2019-05-22T03:36:05.736Z,41.28
2019-05-22T03:36:38.484Z,37.78
2019-05-22T03:37:11.628Z,39.95
2019-05-22T03:37:44.660Z,32.88
2019-05-22T03:38:18.577Z,38.45
2019-05-22T03:38:51.769Z,40.55
2019-05-22T03:39:25.094Z,35.30
2019-05-22T03:39:57.727Z,40.73
2019-05-22T03:40:30.376Z,36.55
2019-05-22T03:41:03.903Z,34.38
2019-05-22T03:41:37.332Z,35.58
2019-05-22T03:42:11.431Z,38.85
2019-05-22T03:42:44.078Z,32.55
2019-05-22T03:43:20.437Z,32.00
2019-05-22T03:43:55.294Z,29.63
2019-05-22T03:44:27.923Z,30.68
2019-05-22T03:45:01.583Z,32.58
2019-05-22T03:45:35.513Z,37.85
2019-05-22T03:46:33.992Z,32.00
2019-05-22T03:47:08.118Z,31.73
2019-05-22T03:47:41.671Z,29.77
2019-05-22T03:48:14.720Z,32.48
2019-05-22T03:48:47.851Z,30.25
2019-05-22T03:49:30.156Z,31.12
2019-05-22T03:49:56.081Z,36.42
2019-05-22T03:50:29.645Z,32.33
2019-05-22T03:51:11.991Z,31.93
2019-05-22T03:51:47.142Z,28.55
2019-05-22T03:52:20.057Z,27.00
2019-05-22T03:52:54.678Z,30.20
2019-05-22T03:53:27.536Z,30.90
2019-05-22T03:54:01.066Z,31.02
2019-05-22T03:54:35.772Z,28.98
2019-05-22T03:55:11.025Z,25.55
2019-05-22T03:55:44.273Z,25.52
2019-05-22T03:56:17.448Z,24.70
2019-05-22T03:56:50.183Z,28.60
2019-05-22T03:57:23.927Z,26.40
2019-05-22T03:57:56.651Z,31.80
2019-05-22T03:58:29.868Z,26.30
2019-05-22T03:59:03.004Z,29.18
2019-05-22T03:59:38.035Z,31.60
2019-05-22T04:00:17.005Z,27.52
2019-05-22T04:00:51.524Z,33.80
2019-05-22T04:01:26.753Z,28.65
2019-05-22T04:01:59.716Z,28.35
2019-05-22T04:02:33.377Z,28.65
2019-05-22T04:03:10.726Z,27.45
2019-05-22T04:03:46.123Z,28.55
2019-05-22T04:04:39.967Z,29.63
2019-05-22T04:05:13.311Z,24.87
2019-05-22T04:05:47.044Z,26.73
2019-05-22T04:06:22.412Z,28.23
2019-05-22T04:06:55.791Z,27.37
2019-05-22T04:07:29.607Z,27.22
2019-05-22T04:08:04.650Z,30.30
2019-05-22T04:08:38.079Z,29.07
2019-05-22T04:09:19.860Z,28.73
2019-05-22T04:09:54.771Z,28.15
2019-05-22T04:10:33.485Z,23.77
2019-05-22T04:11:09.759Z,27.35
2019-05-22T04:11:45.028Z,28.32
2019-05-22T04:12:18.032Z,31.27
2019-05-22T04:12:51.635Z,23.77
2019-05-22T04:13:25.383Z,27.07
2019-05-22T04:13:58.351Z,24.95
2019-05-22T04:14:35.489Z,30.00
2019-05-22T04:15:10.020Z,29.98
2019-05-22T04:15:43.008Z,25.57
2019-05-22T04:16:18.072Z,28.10
2019-05-22T04:16:52.517Z,26.02
2019-05-22T04:17:25.648Z,28.67
2019-05-22T04:18:11.655Z,23.25
2019-05-22T04:18:46.101Z,24.50
2019-05-22T04:19:19.352Z,29.87
2019-05-22T04:19:52.148Z,22.55
2019-05-22T04:20:25.660Z,23.55
2019-05-22T04:21:00.223Z,23.40
2019-05-22T04:21:32.896Z,27.15
2019-05-22T04:22:07.500Z,23.55
2019-05-22T04:22:40.464Z,22.48
2019-05-22T04:23:13.316Z,23.65
2019-05-22T04:23:46.767Z,22.37
2019-05-22T04:24:20.020Z,22.55
2019-05-22T04:24:53.052Z,23.27
2019-05-22T04:25:26.393Z,24.47
2019-05-22T04:26:00.939Z,26.07
2019-05-22T04:26:34.864Z,20.88
2019-05-22T04:27:11.711Z,23.90
2019-05-22T04:27:46.953Z,21.97
2019-05-22T04:28:23.382Z,24.50
2019-05-22T04:29:03.290Z,25.57
2019-05-22T04:29:39.349Z,19.92
2019-05-22T04:30:14.533Z,20.55
2019-05-22T04:30:52.816Z,21.42
2019-05-22T04:32:11.188Z,23.65
2019-05-22T04:33:01.902Z,25.20
2019-05-22T04:33:35.660Z,18.98
2019-05-22T04:34:10.127Z,18.37
2019-05-22T04:34:43.822Z,20.02
2019-05-22T04:35:18.884Z,23.18
2019-05-22T04:35:53.111Z,23.10
2019-05-22T04:36:26.657Z,18.62
2019-05-22T04:36:59.477Z,19.75
2019-05-22T04:37:32.839Z,20.00
2019-05-22T04:38:06.994Z,17.65
2019-05-22T04:38:40.214Z,20.97
2019-05-22T04:39:21.654Z,18.20
2019-05-22T04:40:14.568Z,18.42
2019-05-22T04:40:57.420Z,16.25
2019-05-22T04:41:30.154Z,15.15
2019-05-22T04:42:03.684Z,22.67
2019-05-22T04:42:36.662Z,14.55
2019-05-22T04:43:10.212Z,20.23
2019-05-22T04:43:43.152Z,18.60
2019-05-22T04:44:15.977Z,18.77
2019-05-22T04:45:10.352Z,23.62
2019-05-22T04:45:43.421Z,25.45
2019-05-22T04:46:17.382Z,17.67
2019-05-22T04:46:50.439Z,16.10
2019-05-22T04:47:23.279Z,18.75
2019-05-22T04:47:57.971Z,17.82
2019-05-22T04:48:34.885Z,17.95
2019-05-22T04:49:08.493Z,19.62
2019-05-22T04:49:41.512Z,18.52
2019-05-22T04:50:15.161Z,19.65
2019-05-22T04:50:49.854Z,17.02
2019-05-22T04:51:28.549Z,16.48
2019-05-22T04:52:01.591Z,20.23
2019-05-22T04:52:34.270Z,21.10
2019-05-22T04:53:07.301Z,21.27
2019-05-22T04:53:39.946Z,18.65
2019-05-22T04:54:12.920Z,17.67
2019-05-22T04:54:46.180Z,16.90
2019-05-22T04:55:19.319Z,18.65
2019-05-22T04:55:52.566Z,16.82
2019-05-22T04:56:26.970Z,14.13
2019-05-22T04:56:59.711Z,16.05
2019-05-22T04:57:32.843Z,15.75
2019-05-22T04:58:07.850Z,19.48
2019-05-22T04:58:40.512Z,13.72
2019-05-22T04:59:13.956Z,14.73
2019-05-22T04:59:46.972Z,15.00
2019-05-22T05:00:20.668Z,14.05
2019-05-22T05:00:54.475Z,14.70
2019-05-22T05:01:28.457Z,17.07
2019-05-22T05:02:01.455Z,13.60
2019-05-22T05:02:34.110Z,14.13
2019-05-22T05:03:08.697Z,13.88
2019-05-22T05:03:41.637Z,13.28
2019-05-22T05:04:15.418Z,14.65
2019-05-22T05:04:49.759Z,14.47
2019-05-22T05:05:26.191Z,16.23
2019-05-22T05:05:59.623Z,13.88
2019-05-22T05:06:35.539Z,13.98
2019-05-22T05:07:08.963Z,13.65
2019-05-22T05:07:43.494Z,13.58
2019-05-22T05:08:16.430Z,13.55
2019-05-22T05:08:49.668Z,16.07
2019-05-22T05:09:22.442Z,12.28
2019-05-22T05:09:55.184Z,13.05
2019-05-22T05:10:28.811Z,15.28
2019-05-22T05:11:03.127Z,17.00
2019-05-22T05:11:36.092Z,16.93
2019-05-22T05:12:09.463Z,16.55
2019-05-22T05:12:42.218Z,13.58
2019-05-22T05:13:15.601Z,16.45
2019-05-22T05:13:48.347Z,18.12
2019-05-22T05:14:21.030Z,16.87
2019-05-22T05:14:54.115Z,17.20
2019-05-22T05:15:26.972Z,16.57
2019-05-22T05:15:59.707Z,16.85
2019-05-22T05:16:32.830Z,14.03
2019-05-22T05:17:06.887Z,15.43
2019-05-22T05:17:40.105Z,14.60
2019-05-22T05:18:13.022Z,12.07
2019-05-22T05:18:45.651Z,11.65
2019-05-22T05:19:18.599Z,12.70
2019-05-22T05:19:51.506Z,13.68
2019-05-22T05:20:24.827Z,11.22
2019-05-22T05:20:57.851Z,18.23
2019-05-22T05:21:30.484Z,10.78
2019-05-22T05:22:03.636Z,10.35
2019-05-22T05:22:44.217Z,10.93
2019-05-22T05:23:17.262Z,13.15
2019-05-22T05:23:50.295Z,11.55
2019-05-22T05:24:23.058Z,10.18
2019-05-22T05:24:55.955Z,9.43
2019-05-22T05:25:28.783Z,11.08
2019-05-22T05:26:01.716Z,11.22
2019-05-22T05:26:35.660Z,8.00
2019-05-22T05:27:08.871Z,9.15
2019-05-22T05:27:41.899Z,15.50
2019-05-22T05:28:15.440Z,12.10
2019-05-22T05:28:48.081Z,9.55
2019-05-22T05:29:28.965Z,9.98
2019-05-22T05:30:02.226Z,10.30
2019-05-22T05:30:35.331Z,7.62
2019-05-22T05:31:10.073Z,9.55
2019-05-22T05:31:42.790Z,7.62
2019-05-22T05:32:16.151Z,8.48
2019-05-22T05:32:48.911Z,7.22
2019-05-22T05:33:22.134Z,7.55
2019-05-22T05:34:24.863Z,10.88
2019-05-22T05:35:02.132Z,8.15
2019-05-22T05:35:35.466Z,6.80
2019-05-22T05:36:08.647Z,6.85
2019-05-22T05:36:41.986Z,6.75
2019-05-22T05:37:16.927Z,6.53
2019-05-22T05:37:50.099Z,6.25
2019-05-22T05:38:33.202Z,10.43
2019-05-22T05:39:12.760Z,8.03
2019-05-22T05:40:35.808Z,6.25
2019-05-22T05:41:09.719Z,6.10
2019-05-22T05:41:42.398Z,6.50
2019-05-22T05:42:15.139Z,5.78
2019-05-22T05:42:48.479Z,7.10
2019-05-22T05:43:23.074Z,6.60
2019-05-22T05:43:57.186Z,5.90
2019-05-22T05:44:30.980Z,9.05
2019-05-22T05:45:07.026Z,6.30
2019-05-22T05:45:41.552Z,5.78
2019-05-22T05:46:14.625Z,8.53
2019-05-22T05:46:48.708Z,6.22
2019-05-22T05:47:22.557Z,6.70
2019-05-22T05:47:57.221Z,6.50
2019-05-22T05:48:32.498Z,6.50
2019-05-22T05:49:06.538Z,8.80
2019-05-22T05:49:39.397Z,7.20
2019-05-22T05:50:14.728Z,6.15
2019-05-22T05:51:21.299Z,9.30
2019-05-22T05:51:55.782Z,7.60
2019-05-22T05:52:30.253Z,5.95
2019-05-22T05:53:06.018Z,5.87
2019-05-22T05:53:57.956Z,7.17
2019-05-22T05:54:31.447Z,6.20
2019-05-22T05:55:05.041Z,5.70
2019-05-22T05:56:13.467Z,5.80
2019-05-22T05:56:47.884Z,7.45
2019-05-22T05:58:01.518Z,7.12
2019-05-22T05:58:34.460Z,5.97
2019-05-22T05:59:08.330Z,6.92
2019-05-22T05:59:42.142Z,5.92
2019-05-22T06:00:19.099Z,5.72
2019-05-22T06:00:54.976Z,5.78
2019-05-22T06:01:30.760Z,5.15
2019-05-22T06:02:04.397Z,5.90
2019-05-22T06:02:37.414Z,6.20
2019-05-22T06:03:30.731Z,6.35
2019-05-22T06:04:04.385Z,6.60
2019-05-22T06:04:38.362Z,5.70
2019-05-22T06:05:11.858Z,6.72
2019-05-22T06:05:44.566Z,7.05
2019-05-22T06:07:11.932Z,7.33
2019-05-22T06:07:44.547Z,4.30
2019-05-22T06:08:17.400Z,7.75
2019-05-22T06:08:50.268Z,7.20
2019-05-22T06:09:25.587Z,7.90
2019-05-22T06:10:41.920Z,7.37
2019-05-22T06:11:42.778Z,6.22
2019-05-22T06:12:16.257Z,6.20
2019-05-22T06:12:49.942Z,6.50
2019-05-22T06:13:23.336Z,5.78
2019-05-22T06:13:56.398Z,8.85
2019-05-22T06:14:30.533Z,6.10
2019-05-22T06:15:03.591Z,6.35
2019-05-22T06:16:28.809Z,7.80
2019-05-22T06:18:13.763Z,5.70
2019-05-22T06:18:46.901Z,6.55
2019-05-22T06:19:20.279Z,6.17
2019-05-22T06:19:54.723Z,7.40
2019-05-22T06:20:28.573Z,7.35
2019-05-22T06:21:04.336Z,5.20
2019-05-22T06:21:43.930Z,5.72
2019-05-22T06:22:18.672Z,7.10
2019-05-22T06:23:51.840Z,7.80
2019-05-22T06:24:45.378Z,8.03
2019-05-22T06:25:18.538Z,5.58
2019-05-22T06:25:51.865Z,4.42
2019-05-22T06:26:49.432Z,5.25
2019-05-22T06:27:29.846Z,8.13
2019-05-22T06:28:04.345Z,5.22
2019-05-22T06:28:37.991Z,5.95
2019-05-22T06:29:12.445Z,6.12
2019-05-22T06:29:55.086Z,7.97
2019-05-22T06:30:40.821Z,6.90
2019-05-22T06:31:21.735Z,9.05
2019-05-22T06:32:42.628Z,9.53
2019-05-22T06:33:30.027Z,7.40
2019-05-22T06:34:04.575Z,7.17
2019-05-22T06:34:37.236Z,10.75
2019-05-22T06:35:11.565Z,6.10
2019-05-22T06:35:47.115Z,8.83
2019-05-22T06:36:21.047Z,10.03
2019-05-22T06:36:58.340Z,6.40
2019-05-22T06:37:38.448Z,9.15
2019-05-22T06:38:53.888Z,6.17
2019-05-22T06:39:27.345Z,13.03
2019-05-22T06:40:00.894Z,6.83
2019-05-22T06:40:34.335Z,6.30
2019-05-22T06:41:08.366Z,11.80
2019-05-22T06:41:42.376Z,8.68
2019-05-22T06:42:16.099Z,7.05
2019-05-22T06:43:33.911Z,6.25
2019-05-22T06:44:41.666Z,6.87
2019-05-22T06:45:14.717Z,8.80
2019-05-22T06:45:47.469Z,4.83
2019-05-22T06:46:45.411Z,5.90
2019-05-22T06:47:22.546Z,5.75
2019-05-22T06:47:55.289Z,8.73
2019-05-22T06:48:28.251Z,6.60
2019-05-22T06:49:04.501Z,13.13
2019-05-22T06:49:42.422Z,5.92
2019-05-22T06:50:15.081Z,8.60
2019-05-22T06:50:49.385Z,7.65
2019-05-22T06:51:22.570Z,12.45
2019-05-22T06:51:55.662Z,7.87
2019-05-22T06:52:29.374Z,6.85
2019-05-22T06:53:09.826Z,5.35
2019-05-22T06:53:36.571Z,7.83
2019-05-22T06:54:09.680Z,9.70
2019-05-22T06:54:42.614Z,6.72
2019-05-22T06:55:15.652Z,8.15
2019-05-22T06:55:48.603Z,6.90
2019-05-22T06:56:23.772Z,6.85
2019-05-22T06:56:56.540Z,8.68
2019-05-22T06:57:35.534Z,6.60
2019-05-22T06:58:08.832Z,7.37
2019-05-22T06:58:41.867Z,7.20
2019-05-22T06:59:14.899Z,10.85
2019-05-22T06:59:48.665Z,9.15
2019-05-22T07:00:22.541Z,8.38
2019-05-22T07:00:55.572Z,6.10
2019-05-22T07:01:29.009Z,8.25
2019-05-22T07:02:02.092Z,6.42
2019-05-22T07:02:35.244Z,7.10
2019-05-22T07:03:09.920Z,7.80
2019-05-22T07:03:43.239Z,7.00
2019-05-22T07:04:16.859Z,7.25
2019-05-22T07:04:50.446Z,7.92
2019-05-22T07:05:24.027Z,7.50
2019-05-22T07:05:57.472Z,8.25
2019-05-22T07:06:30.150Z,8.20
2019-05-22T07:07:03.813Z,6.70
2019-05-22T07:07:37.591Z,8.85
2019-05-22T07:08:10.710Z,9.05
2019-05-22T07:08:43.367Z,12.65
2019-05-22T07:09:16.124Z,8.43
2019-05-22T07:09:50.058Z,10.05
2019-05-22T07:10:23.291Z,7.17
2019-05-22T07:10:56.598Z,10.65
2019-05-22T07:11:29.531Z,8.43
2019-05-22T07:12:04.583Z,9.43
2019-05-22T07:12:38.787Z,6.58
2019-05-22T07:13:13.543Z,9.28
2019-05-22T07:13:47.699Z,10.28
2019-05-22T07:14:21.380Z,11.88
2019-05-22T07:15:22.645Z,8.35
2019-05-22T07:15:58.427Z,8.20
2019-05-22T07:16:31.557Z,7.80
2019-05-22T07:17:04.989Z,8.93
2019-05-22T07:17:38.641Z,8.88
2019-05-22T07:18:13.619Z,8.05
2019-05-22T07:18:46.830Z,10.40
2019-05-22T07:19:22.103Z,7.70
2019-05-22T07:19:55.236Z,10.00
2019-05-22T07:20:30.420Z,8.73
2019-05-22T07:21:03.784Z,10.58
2019-05-22T07:21:37.642Z,8.73
2019-05-22T07:22:10.306Z,8.58
2019-05-22T07:22:43.404Z,14.47
2019-05-22T07:23:22.215Z,10.23
2019-05-22T07:23:55.297Z,10.18
2019-05-22T07:24:28.738Z,9.53
2019-05-22T07:25:01.401Z,9.58
2019-05-22T07:25:35.884Z,14.73
2019-05-22T07:26:08.822Z,15.15
2019-05-22T07:26:41.682Z,9.55
2019-05-22T07:27:25.890Z,10.43
2019-05-22T07:28:00.010Z,10.40
2019-05-22T07:28:33.035Z,9.75
2019-05-22T07:29:08.110Z,9.25
2019-05-22T07:29:40.832Z,11.50
2019-05-22T07:30:13.762Z,12.53
2019-05-22T07:30:47.517Z,11.73
2019-05-22T07:31:20.232Z,11.63
2019-05-22T07:31:57.372Z,9.55
2019-05-22T07:32:31.018Z,9.30
2019-05-22T07:33:05.262Z,9.28
2019-05-22T07:33:38.289Z,9.80
2019-05-22T07:34:12.155Z,11.93
2019-05-22T07:34:44.813Z,8.78
2019-05-22T07:35:18.300Z,11.03
2019-05-22T07:36:08.423Z,9.60
2019-05-22T07:36:29.319Z,12.80
2019-05-22T07:37:03.198Z,15.00
2019-05-22T07:37:39.952Z,11.65
2019-05-22T07:38:14.179Z,10.75
2019-05-22T07:38:47.395Z,12.05
2019-05-22T07:39:20.598Z,9.75
2019-05-22T07:39:54.000Z,10.85
2019-05-22T07:40:27.206Z,12.30
2019-05-22T07:41:00.225Z,10.23
2019-05-22T07:41:33.588Z,10.75
2019-05-22T07:42:06.228Z,11.30
2019-05-22T07:42:39.100Z,10.30
2019-05-22T07:43:12.152Z,10.43
2019-05-22T07:43:44.883Z,9.80
2019-05-22T07:44:17.530Z,10.60
2019-05-22T07:44:50.640Z,10.03
2019-05-22T07:45:26.505Z,11.95
2019-05-22T07:45:59.738Z,12.75
2019-05-22T07:46:32.485Z,10.43
2019-05-22T07:47:07.249Z,10.45
2019-05-22T07:47:42.148Z,13.22
2019-05-22T07:48:16.173Z,9.93
2019-05-22T07:48:49.422Z,14.03
2019-05-22T07:49:22.718Z,9.78
2019-05-22T07:49:56.121Z,10.72
2019-05-22T07:50:31.261Z,10.32